Time;durP1;ratioP1;P1;durP2;ratioP2;P2;SDS_P1;SDS_P2;PMS_P1;PMS_P2;Temp;Humidity;BMP_temperature;BMP_pressure;BME280_temperature;BME280_humidity;BME280_pressure;Samples;Min_cycle;Max_cycle;Signal;HPM_P1;HPM_P2
2023/01/17 00:02:21;;;;;;;11.40;3.45;;;-0.30;99.90;;;;;;5059190;28;20378;-62
2023/01/17 00:10:24;;;;;;;8.60;3.42;;;-0.30;99.90;;;;;;5060103;28;20408;-62
2023/01/17 00:12:53;;;;;;;7.13;3.20;;;-0.50;99.90;;;;;;5067236;28;20551;-62
2023/01/17 00:15:22;;;;;;;10.55;3.00;;;-0.50;99.90;;;;;;5065516;28;20044;-62
2023/01/17 00:17:49;;;;;;;7.55;2.83;;;-0.50;99.90;;;;;;5059453;28;20052;-62
2023/01/17 00:26:01;;;;;;;4.97;2.30;;;-0.40;99.90;;;;;;5069149;28;20098;-62
2023/01/17 01:35:01;;;;;;;6.32;3.22;;;-0.70;99.90;;;;;;5048260;28;20034;-64
2023/01/17 01:37:28;;;;;;;6.30;2.72;;;-0.70;99.90;;;;;;5034408;28;20068;-64
2023/01/17 01:39:54;;;;;;;6.50;1.80;;;-0.70;99.90;;;;;;5034554;28;20041;-64
2023/01/17 01:42:21;;;;;;;3.65;1.00;;;-0.70;99.90;;;;;;5039431;28;20044;-63
2023/01/17 01:44:51;;;;;;;2.38;1.00;;;-0.70;99.90;;;;;;5048218;28;20049;-64
2023/01/17 01:47:23;;;;;;;3.30;1.50;;;-0.70;99.90;;;;;;5054513;28;20044;-64
2023/01/17 01:49:50;;;;;;;6.90;2.40;;;-0.60;99.90;;;;;;5059945;28;20052;-64
2023/01/17 01:52:19;;;;;;;6.45;2.05;;;-0.80;99.90;;;;;;5053648;28;20033;-64
2023/01/17 01:54:52;;;;;;;6.03;2.30;;;-1.00;99.90;;;;;;5053583;28;20090;-64
2023/01/17 01:57:22;;;;;;;6.28;2.47;;;-1.10;99.90;;;;;;5054637;28;20575;-64
2023/01/17 02:00:03;;;;;;;5.63;1.95;;;-1.20;99.90;;;;;;5046109;28;20103;-64
2023/01/17 02:02:37;;;;;;;4.55;1.92;;;-1.20;99.90;;;;;;5053810;28;20041;-64
2023/01/17 02:05:05;;;;;;;4.78;1.80;;;-1.10;99.90;;;;;;5057355;28;20076;-64
2023/01/17 02:07:34;;;;;;;;;;;-1.20;99.90;;;;;;5043361;28;20091;-64
2023/01/17 02:10:02;;;;;;;4.80;2.10;;;-1.20;99.90;;;;;;5045390;28;19992;-63
2023/01/17 02:12:29;;;;;;;7.00;2.33;;;-1.20;99.90;;;;;;5053661;28;20499;-64
2023/01/17 02:14:57;;;;;;;3.63;1.70;;;-1.20;99.90;;;;;;5053752;28;20094;-64
2023/01/17 02:17:58;;;;;;;4.10;1.80;;;-1.10;99.90;;;;;;5051999;28;20457;-64
2023/01/17 02:20:50;;;;;;;4.53;2.17;;;-1.10;99.90;;;;;;5049777;28;20065;-64
2023/01/17 02:23:36;;;;;;;5.68;2.30;;;-1.10;99.90;;;;;;5042385;28;20049;-63
2023/01/17 02:26:37;;;;;;;4.07;1.88;;;-1.00;99.90;;;;;;5041562;28;20069;-64
2023/01/17 02:29:41;;;;;;;3.47;1.70;;;-1.10;99.90;;;;;;5045339;28;20107;-64
2023/01/17 02:32:29;;;;;;;7.45;2.58;;;-1.00;99.90;;;;;;5052581;28;20099;-64
2023/01/17 02:35:17;;;;;;;5.05;2.25;;;-1.00;99.90;;;;;;5035003;28;20112;-64
2023/01/17 02:38:18;;;;;;;6.10;2.47;;;-1.00;99.90;;;;;;5046936;28;20075;-64
2023/01/17 02:41:04;;;;;;;5.25;2.20;;;-1.10;99.90;;;;;;5033220;28;20045;-64
2023/01/17 02:43:32;;;;;;;6.78;3.03;;;-1.10;99.90;;;;;;5031525;28;20077;-64
2023/01/17 02:46:08;;;;;;;5.85;3.50;;;-1.10;99.90;;;;;;5033576;28;20033;-64
2023/01/17 02:48:37;;;;;;;7.47;2.95;;;-1.00;99.90;;;;;;5051576;28;20506;-64
2023/01/17 02:51:25;;;;;;;5.47;3.08;;;-1.10;99.90;;;;;;5045063;28;20057;-64
2023/01/17 02:54:02;;;;;;;5.80;2.80;;;-1.10;99.90;;;;;;5052956;28;20037;-64
2023/01/17 02:56:59;;;;;;;5.20;2.43;;;-1.10;99.90;;;;;;5053164;28;20458;-63
2023/01/17 02:59:28;;;;;;;6.90;3.45;;;-1.20;99.90;;;;;;5049873;28;20084;-64
2023/01/17 03:02:16;;;;;;;8.20;2.90;;;-1.30;99.90;;;;;;5055455;28;20105;-64
2023/01/17 03:05:09;;;;;;;8.20;3.40;;;-1.20;99.90;;;;;;5042198;28;20048;-64
2023/01/17 03:07:38;;;;;;;9.05;3.10;;;-1.20;99.90;;;;;;5052250;28;20081;-64
2023/01/17 03:10:06;;;;;;;8.07;2.97;;;-1.10;99.90;;;;;;5055020;28;20036;-64
2023/01/17 03:12:35;;;;;;;6.00;3.40;;;-1.10;99.90;;;;;;5040234;28;20100;-64
2023/01/17 03:15:03;;;;;;;8.32;3.70;;;-1.20;99.90;;;;;;5032631;28;20072;-64
2023/01/17 03:17:32;;;;;;;8.93;3.88;;;-1.10;99.90;;;;;;5033243;28;20041;-64
2023/01/17 03:19:58;;;;;;;6.32;3.45;;;-1.10;99.90;;;;;;5032805;28;20453;-64
2023/01/17 03:22:25;;;;;;;11.65;3.50;;;-1.10;99.90;;;;;;5013899;28;20064;-63
2023/01/17 03:24:52;;;;;;;10.15;4.20;;;-1.10;99.90;;;;;;5033086;28;20423;-64
2023/01/17 03:27:18;;;;;;;10.18;4.28;;;-1.10;99.90;;;;;;5048787;28;20082;-64
2023/01/17 03:29:45;;;;;;;7.18;4.30;;;-1.00;99.90;;;;;;5032664;28;20072;-64
2023/01/17 03:32:12;;;;;;;11.25;4.25;;;-1.00;99.90;;;;;;5036020;28;20120;-64
2023/01/17 03:34:39;;;;;;;5.10;2.00;;;-1.00;99.90;;;;;;5051819;28;20100;-64
2023/01/17 03:37:05;;;;;;;3.08;1.80;;;-1.00;99.90;;;;;;5043045;28;20076;-64
2023/01/17 03:39:32;;;;;;;3.33;1.52;;;-1.20;99.90;;;;;;5050334;28;20099;-64
2023/01/17 03:41:59;;;;;;;5.93;1.45;;;-1.40;99.90;;;;;;5048708;28;20037;-64
2023/01/17 03:44:25;;;;;;;3.33;1.90;;;-1.50;99.90;;;;;;5047100;28;20103;-64
2023/01/17 03:46:52;;;;;;;4.38;2.10;;;-1.60;99.90;;;;;;5051036;28;20382;-64
2023/01/17 03:49:19;;;;;;;5.28;2.38;;;-1.70;99.90;;;;;;5043893;28;20079;-64
2023/01/17 03:51:45;;;;;;;5.57;2.33;;;-1.70;99.90;;;;;;5051015;28;20065;-64
2023/01/17 03:54:12;;;;;;;2.88;1.50;;;-1.70;99.90;;;;;;5032079;28;20045;-64
2023/01/17 03:56:39;;;;;;;3.67;1.92;;;-1.70;99.90;;;;;;5031347;28;20060;-64
2023/01/17 03:59:05;;;;;;;7.35;3.35;;;-1.70;99.90;;;;;;5032076;28;20080;-64
2023/01/17 04:01:32;;;;;;;6.72;2.65;;;-1.60;99.90;;;;;;5033379;28;20099;-64
2023/01/17 04:03:59;;;;;;;10.65;2.92;;;-1.60;99.90;;;;;;5031648;28;20071;-64
2023/01/17 04:06:27;;;;;;;5.30;2.50;;;-1.60;99.90;;;;;;5041497;28;20151;-63
2023/01/17 04:08:53;;;;;;;5.93;2.92;;;-1.70;99.90;;;;;;5039435;28;20069;-64
2023/01/17 04:11:20;;;;;;;6.90;2.42;;;-1.70;99.90;;;;;;5038868;28;20515;-64
2023/01/17 04:13:47;;;;;;;6.25;2.65;;;-1.80;99.90;;;;;;5051543;28;20112;-64
2023/01/17 04:16:16;;;;;;;3.55;2.03;;;-1.70;99.90;;;;;;5031424;28;20053;-64
2023/01/17 04:18:43;;;;;;;5.10;1.77;;;-1.70;99.90;;;;;;5040530;28;20155;-64
2023/01/17 04:21:10;;;;;;;4.03;1.77;;;-1.70;99.90;;;;;;5048383;28;20375;-64
2023/01/17 04:23:37;;;;;;;2.75;1.42;;;-1.60;99.90;;;;;;5050675;28;20099;-64
2023/01/17 04:26:05;;;;;;;5.00;1.80;;;-1.60;99.90;;;;;;5044715;28;20509;-64
2023/01/17 04:28:31;;;;;;;5.53;2.00;;;-1.50;99.90;;;;;;5033143;28;20058;-64
2023/01/17 04:30:59;;;;;;;3.17;1.80;;;-1.60;99.90;;;;;;5044651;28;20073;-64
2023/01/17 04:33:25;;;;;;;4.30;2.17;;;-1.50;99.90;;;;;;5039096;28;20045;-64
2023/01/17 04:35:53;;;;;;;3.58;1.85;;;-1.50;99.90;;;;;;5033094;28;20084;-64
2023/01/17 04:38:20;;;;;;;;;;;-1.40;99.90;;;;;;5031426;28;20042;-64
2023/01/17 04:40:47;;;;;;;5.43;2.50;;;-1.40;99.90;;;;;;5042839;28;19964;-64
2023/01/17 04:43:14;;;;;;;5.00;2.30;;;-1.40;99.90;;;;;;5044236;28;20095;-64
2023/01/17 04:45:41;;;;;;;4.60;1.98;;;-1.40;99.90;;;;;;5046614;28;20053;-64
2023/01/17 04:48:11;;;;;;;2.22;1.27;;;-1.40;99.90;;;;;;5070491;22;20545;-63
2023/01/17 04:50:38;;;;;;;4.28;1.90;;;-1.30;99.90;;;;;;5064940;28;20494;-63
2023/01/17 04:53:05;;;;;;;;;;;-1.30;99.90;;;;;;5051176;28;20087;-64
2023/01/17 04:55:32;;;;;;;5.30;2.50;;;-1.40;99.90;;;;;;5055196;28;19921;-64
2023/01/17 04:57:58;;;;;;;3.00;2.10;;;-1.40;99.90;;;;;;5034993;28;20068;-64
2023/01/17 05:00:25;;;;;;;3.88;2.08;;;-1.40;99.90;;;;;;5033467;28;20071;-64
2023/01/17 05:02:52;;;;;;;5.45;1.80;;;-1.40;99.90;;;;;;5030254;28;20041;-64
2023/01/17 05:05:19;;;;;;;5.72;2.25;;;-1.50;99.90;;;;;;5033228;28;20053;-64
2023/01/17 05:07:53;;;;;;;3.17;1.80;;;-1.50;99.90;;;;;;5044234;28;20045;-64
2023/01/17 05:10:20;;;;;;;4.22;1.88;;;-1.50;99.90;;;;;;5048397;28;20045;-64
2023/01/17 05:12:59;;;;;;;4.72;1.83;;;-1.50;99.90;;;;;;5054625;28;20124;-64
2023/01/17 05:15:26;;;;;;;6.32;1.98;;;-1.70;99.90;;;;;;5051322;28;20482;-64
2023/01/17 05:17:53;;;;;;;5.40;1.67;;;-1.80;99.90;;;;;;5052114;28;20053;-64
2023/01/17 05:20:24;;;;;;;2.75;1.45;;;-1.80;99.90;;;;;;5040055;28;20365;-64
2023/01/17 05:22:55;;;;;;;3.47;1.65;;;-1.80;99.90;;;;;;5034021;28;20069;-64
2023/01/17 05:25:25;;;;;;;3.40;1.70;;;-1.80;99.90;;;;;;5039057;28;20045;-64
2023/01/17 05:27:52;;;;;;;3.17;1.67;;;-1.80;99.90;;;;;;5052657;28;20052;-64
2023/01/17 05:30:19;;;;;;;4.05;1.95;;;-1.80;99.90;;;;;;5051491;28;20037;-64
2023/01/17 05:32:54;;;;;;;10.60;4.45;;;-1.80;99.90;;;;;;5040841;28;20099;-64
2023/01/17 05:35:24;;;;;;;9.13;4.20;;;-1.70;99.90;;;;;;5040575;28;20045;-64
2023/01/17 05:37:51;;;;;;;8.45;4.43;;;-1.70;99.90;;;;;;5038210;28;20099;-64
2023/01/17 05:40:20;;;;;;;9.32;3.33;;;-1.70;99.90;;;;;;5039980;28;20069;-64
2023/01/17 05:42:49;;;;;;;8.25;3.95;;;-1.70;99.90;;;;;;5043354;28;20095;-63
2023/01/17 05:45:17;;;;;;;16.45;5.55;;;-1.70;99.90;;;;;;5051765;28;20098;-63
2023/01/17 05:47:49;;;;;;;14.45;5.57;;;-1.70;99.90;;;;;;5053482;28;20072;-63
2023/01/17 05:50:19;;;;;;;13.50;5.45;;;-1.70;99.90;;;;;;5042527;28;20099;-63
2023/01/17 05:53:01;;;;;;;11.57;4.53;;;-1.70;99.90;;;;;;5051280;28;20045;-63
2023/01/17 05:55:29;;;;;;;10.05;4.13;;;-1.70;99.90;;;;;;5037727;28;20452;-63
2023/01/17 05:57:57;;;;;;;5.13;2.65;;;-1.80;99.90;;;;;;5039366;28;20081;-63
2023/01/17 06:00:23;;;;;;;;;;;-1.80;99.90;;;;;;5033645;28;20076;-63
2023/01/17 06:02:52;;;;;;;3.58;1.70;;;-1.80;99.90;;;;;;5035304;28;20350;-63
2023/01/17 06:05:20;;;;;;;3.85;1.80;;;-1.80;99.90;;;;;;5032721;28;20120;-63
2023/01/17 06:07:47;;;;;;;4.95;2.13;;;-1.80;99.90;;;;;;5041209;28;20069;-63
2023/01/17 06:10:15;;;;;;;20.77;8.70;;;-1.80;99.90;;;;;;5042816;28;20124;-63
2023/01/17 06:12:43;;;;;;;16.40;6.32;;;-1.80;99.90;;;;;;5046500;28;20094;-63
2023/01/17 06:15:11;;;;;;;11.07;5.65;;;-1.80;99.90;;;;;;5049980;28;20064;-63
2023/01/17 06:17:38;;;;;;;15.80;5.60;;;-1.80;99.90;;;;;;5033846;28;20448;-64
2023/01/17 06:20:06;;;;;;;11.77;5.32;;;-1.80;99.90;;;;;;5051484;28;20083;-63
2023/01/17 06:22:33;;;;;;;16.90;6.60;;;-1.70;99.90;;;;;;5051347;28;20068;-64
2023/01/17 06:24:59;;;;;;;16.50;7.78;;;-1.60;99.90;;;;;;5051351;28;20067;-64
2023/01/17 06:27:26;;;;;;;18.17;8.40;;;-1.60;99.90;;;;;;5038027;28;20098;-64
2023/01/17 06:29:53;;;;;;;11.88;5.32;;;-1.60;99.90;;;;;;5032998;28;20387;-64
2023/01/17 06:32:20;;;;;;;11.43;6.18;;;-1.60;99.90;;;;;;5037124;28;20042;-64
2023/01/17 06:34:47;;;;;;;8.52;4.20;;;-1.70;99.90;;;;;;5033333;28;20410;-64
2023/01/17 06:37:13;;;;;;;5.95;2.45;;;-1.80;99.90;;;;;;5032663;28;20111;-64
2023/01/17 06:39:40;;;;;;;9.02;3.03;;;-1.80;99.90;;;;;;5033594;28;20421;-64
2023/01/17 06:42:07;;;;;;;9.95;4.43;;;-1.90;99.90;;;;;;5038965;28;20065;-64
2023/01/17 06:44:34;;;;;;;22.63;12.13;;;-2.00;99.90;;;;;;5033403;28;20168;-64
2023/01/17 06:47:00;;;;;;;21.77;11.45;;;-2.00;99.90;;;;;;5033216;28;20554;-63
2023/01/17 06:50:18;;;;;;;25.92;10.82;;;-2.10;99.90;;;;;;5041340;28;20482;-64
2023/01/17 06:52:57;;;;;;;34.40;15.77;;;-2.00;99.90;;;;;;5038715;28;20095;-64
2023/01/17 06:55:27;;;;;;;30.65;14.07;;;-1.90;99.90;;;;;;5032204;28;20124;-64
2023/01/17 07:02:19;;;;;;;24.65;10.95;;;-1.90;99.90;;;;;;5038571;28;20064;-61
2023/01/17 07:04:45;;;;;;;12.85;6.07;;;-1.80;99.90;;;;;;5049240;28;20452;-61
2023/01/17 07:07:12;;;;;;;22.30;10.13;;;-2.00;99.90;;;;;;5043089;28;20086;-61
2023/01/17 07:09:39;;;;;;;30.02;12.32;;;-2.00;99.90;;;;;;5072606;28;20044;-61
2023/01/17 07:12:06;;;;;;;16.73;7.07;;;-2.00;99.90;;;;;;5071928;28;20557;-61
2023/01/17 07:14:32;;;;;;;26.23;10.55;;;-2.00;99.90;;;;;;5045157;28;20582;-61
2023/01/17 07:16:59;;;;;;;17.02;8.02;;;-2.10;99.90;;;;;;5071518;28;20044;-61
2023/01/17 07:19:26;;;;;;;12.70;6.43;;;-2.10;99.90;;;;;;5071461;28;20493;-61
2023/01/17 07:21:53;;;;;;;15.18;6.70;;;-2.10;99.90;;;;;;5072341;28;20467;-61
2023/01/17 07:24:21;;;;;;;22.58;8.25;;;-2.00;99.90;;;;;;5060982;28;20564;-61
2023/01/17 07:26:49;;;;;;;25.42;11.02;;;-2.00;99.90;;;;;;5052391;28;20045;-61
2023/01/17 07:29:16;;;;;;;20.25;9.90;;;-1.90;99.90;;;;;;5059539;28;20052;-61
2023/01/17 07:31:43;;;;;;;21.30;9.25;;;-1.90;99.90;;;;;;5071484;28;20110;-61
2023/01/17 07:34:10;;;;;;;25.75;10.60;;;-1.90;99.90;;;;;;5054179;28;20118;-61
2023/01/17 07:36:37;;;;;;;21.27;8.85;;;-1.90;99.90;;;;;;5061666;28;20094;-61
2023/01/17 07:39:04;;;;;;;16.77;6.88;;;-1.80;99.90;;;;;;5044389;28;20045;-61
2023/01/17 07:41:33;;;;;;;17.23;7.68;;;-1.80;99.90;;;;;;5053012;28;20489;-61
2023/01/17 07:44:03;;;;;;;15.70;7.85;;;-1.80;99.90;;;;;;5072365;28;20139;-60
2023/01/17 07:46:30;;;;;;;16.17;7.00;;;-1.80;99.90;;;;;;5071696;28;20048;-61
2023/01/17 07:48:57;;;;;;;15.43;7.45;;;-1.90;99.90;;;;;;5047366;28;22086;-61
2023/01/17 07:51:23;;;;;;;14.27;7.00;;;-1.90;99.90;;;;;;5047553;28;20096;-61
2023/01/17 07:53:50;;;;;;;12.10;5.35;;;-1.90;99.90;;;;;;5053741;28;20065;-61
2023/01/17 07:56:17;;;;;;;13.25;5.05;;;-2.00;99.90;;;;;;5049638;28;20497;-61
2023/01/17 07:58:43;;;;;;;10.70;3.90;;;-2.00;99.90;;;;;;5052695;28;20064;-61
2023/01/17 08:01:12;;;;;;;18.25;7.90;;;-2.00;99.90;;;;;;5070796;28;20610;-61
2023/01/17 08:03:39;;;;;;;31.00;14.48;;;-2.00;99.90;;;;;;5060720;28;20401;-61
2023/01/17 08:06:22;;;;;;;26.73;12.25;;;-1.90;99.90;;;;;;5071550;28;20044;-61
2023/01/17 08:08:49;;;;;;;34.08;14.48;;;-1.80;99.90;;;;;;5070946;28;20064;-61
2023/01/17 08:11:16;;;;;;;;;;;-1.60;99.90;;;;;;5072139;28;20052;-61
2023/01/17 08:13:43;;;;;;;23.55;10.40;;;-1.50;99.90;;;;;;5059955;28;19956;-60
2023/01/17 08:16:11;;;;;;;20.23;9.23;;;-1.40;99.90;;;;;;5071531;28;20066;-61
2023/01/17 08:18:38;;;;;;;24.95;10.93;;;-1.20;99.90;;;;;;5071023;28;20040;-61
2023/01/17 08:21:15;;;;;;;20.30;10.55;;;-1.10;99.90;;;;;;5052002;28;20102;-61
2023/01/17 08:23:46;;;;;;;32.30;12.65;;;-1.00;99.90;;;;;;5051109;28;20098;-61
2023/01/17 08:26:20;;;;;;;25.27;12.23;;;-0.90;99.90;;;;;;5051351;28;20049;-61
2023/01/17 08:29:07;;;;;;;15.93;7.50;;;-0.70;99.90;;;;;;5059079;28;20459;-61
2023/01/17 08:31:34;;;;;;;17.58;7.60;;;-0.70;99.90;;;;;;5070655;28;20048;-61
2023/01/17 08:34:01;;;;;;;15.63;6.85;;;-0.60;99.90;;;;;;5063955;28;20074;-61
2023/01/17 08:36:29;;;;;;;19.60;8.68;;;-0.60;99.90;;;;;;5070944;28;20049;-61
2023/01/17 08:38:56;;;;;;;20.80;10.15;;;-0.50;99.90;;;;;;5070565;28;20045;-61
2023/01/17 08:41:26;;;;;;;21.35;9.65;;;-0.50;99.90;;;;;;5069047;28;20052;-61
2023/01/17 08:43:52;;;;;;;24.65;10.30;;;-0.40;99.90;;;;;;5032181;28;20045;-61
2023/01/17 08:46:19;;;;;;;23.27;9.82;;;-0.30;99.90;;;;;;5052609;28;20524;-61
2023/01/17 08:48:46;;;;;;;21.95;9.15;;;-0.20;99.90;;;;;;5053043;28;20069;-61
2023/01/17 08:51:12;;;;;;;22.23;9.65;;;-0.10;99.90;;;;;;5071060;28;20504;-61
2023/01/17 08:53:39;;;;;;;24.48;9.18;;;0.00;99.90;;;;;;5058489;28;20065;-61
2023/01/17 08:56:06;;;;;;;17.77;6.65;;;0.10;99.90;;;;;;5051122;28;20116;-61
2023/01/17 08:58:34;;;;;;;14.65;7.00;;;0.10;99.90;;;;;;5049000;28;20060;-61
2023/01/17 09:01:02;;;;;;;18.77;7.68;;;0.20;99.90;;;;;;5064900;28;20051;-61
2023/01/17 09:03:30;;;;;;;14.38;7.93;;;0.20;99.90;;;;;;5069419;28;20532;-61
2023/01/17 09:06:08;;;;;;;18.73;8.07;;;0.20;99.90;;;;;;5069807;28;20583;-61
2023/01/17 09:08:35;;;;;;;18.40;6.97;;;0.20;99.90;;;;;;5071131;28;20064;-61
2023/01/17 09:11:08;;;;;;;15.45;6.35;;;0.20;99.90;;;;;;5057725;28;20098;-61
2023/01/17 09:13:35;;;;;;;13.23;4.85;;;0.20;99.90;;;;;;5045715;28;20037;-61
2023/01/17 09:16:02;;;;;;;18.73;6.47;;;0.30;99.90;;;;;;5070375;28;20094;-62
2023/01/17 09:18:31;;;;;;;11.73;5.45;;;0.40;99.90;;;;;;5065907;28;20094;-61
2023/01/17 09:20:58;;;;;;;16.08;6.95;;;0.50;99.90;;;;;;5069481;28;21037;-61
2023/01/17 09:23:26;;;;;;;8.98;5.55;;;0.50;99.90;;;;;;5069649;28;20066;-61
2023/01/17 09:25:55;;;;;;;15.75;6.35;;;0.60;99.90;;;;;;5051279;28;20386;-61
2023/01/17 09:28:22;;;;;;;12.18;6.10;;;0.70;99.90;;;;;;5044478;28;20583;-61
2023/01/17 09:30:49;;;;;;;10.98;5.18;;;0.80;99.90;;;;;;5033020;28;20088;-61
2023/01/17 09:33:16;;;;;;;;;;;0.90;99.90;;;;;;5049626;28;20486;-61
2023/01/17 09:35:44;;;;;;;9.50;4.85;;;1.00;99.90;;;;;;5064787;28;19986;-61
2023/01/17 09:38:11;;;;;;;12.18;5.38;;;1.10;99.90;;;;;;5070487;28;20036;-61
2023/01/17 09:40:44;;;;;;;9.95;5.05;;;1.10;99.90;;;;;;5070852;28;20096;-61
2023/01/17 09:43:25;;;;;;;14.45;5.95;;;1.30;99.90;;;;;;5048318;28;20040;-61
2023/01/17 09:45:52;;;;;;;12.30;6.55;;;1.30;99.90;;;;;;5070606;28;20102;-61
2023/01/17 09:48:36;;;;;;;9.85;5.18;;;1.30;99.90;;;;;;5068746;28;20049;-61
2023/01/17 09:51:08;;;;;;;12.23;5.43;;;1.30;99.90;;;;;;5070583;28;20052;-61
2023/01/17 09:53:37;;;;;;;10.00;4.90;;;1.10;99.90;;;;;;5072882;28;20044;-61
2023/01/17 09:56:13;;;;;;;8.48;4.30;;;1.00;99.90;;;;;;5074396;28;20455;-61
2023/01/17 09:59:04;;;;;;;6.35;3.47;;;0.90;99.90;;;;;;5066342;28;20070;-61
2023/01/17 10:01:41;;;;;;;6.95;2.92;;;0.90;99.90;;;;;;5073872;28;20041;-61
2023/01/17 10:04:47;;;;;;;7.07;4.35;;;1.00;99.90;;;;;;5073619;28;20123;-61
2023/01/17 10:07:17;;;;;;;11.52;4.88;;;1.00;99.90;;;;;;5049390;28;20067;-61
2023/01/17 10:10:08;;;;;;;10.80;4.70;;;1.10;99.90;;;;;;5065569;28;20125;-60
2023/01/17 10:12:41;;;;;;;6.75;4.15;;;1.10;99.90;;;;;;5044962;28;20072;-61
2023/01/17 10:15:16;;;;;;;9.85;5.00;;;1.30;99.90;;;;;;5045904;28;20048;-61
2023/01/17 10:18:00;;;;;;;9.57;5.10;;;1.30;99.90;;;;;;5046530;28;20087;-61
2023/01/17 10:20:45;;;;;;;12.45;5.68;;;1.30;99.90;;;;;;5053216;28;20067;-60
2023/01/17 10:23:44;;;;;;;18.13;7.57;;;1.40;99.90;;;;;;5053593;28;20060;-61
2023/01/17 10:26:19;;;;;;;15.27;6.45;;;1.40;99.90;;;;;;5049769;28;20112;-60
2023/01/17 10:28:49;;;;;;;13.75;6.68;;;1.50;99.90;;;;;;5021983;28;20414;-61
2023/01/17 10:31:21;;;;;;;13.77;6.82;;;1.60;99.90;;;;;;5073607;28;20052;-61
2023/01/17 10:33:55;;;;;;;15.43;6.43;;;1.70;99.90;;;;;;5066734;28;20045;-61
2023/01/17 10:36:30;;;;;;;17.38;5.97;;;1.90;99.90;;;;;;5073345;28;20053;-61
2023/01/17 10:39:01;;;;;;;13.25;5.57;;;2.00;99.90;;;;;;5072758;28;20537;-61
2023/01/17 10:41:45;;;;;;;10.68;5.50;;;2.10;99.90;;;;;;5073293;28;20442;-61
2023/01/17 10:44:22;;;;;;;14.25;4.65;;;2.20;99.90;;;;;;5060754;28;20047;-61
2023/01/17 10:47:04;;;;;;;6.07;3.60;;;2.20;99.90;;;;;;5053355;28;20091;-61
2023/01/17 10:49:31;;;;;;;10.63;5.68;;;2.20;99.90;;;;;;5057576;28;20384;-61
2023/01/17 10:52:17;;;;;;;9.50;4.90;;;2.30;99.90;;;;;;5072890;28;20609;-61
2023/01/17 10:55:02;;;;;;;8.77;5.13;;;2.40;99.90;;;;;;5072978;28;20058;-61
2023/01/17 10:57:42;;;;;;;11.27;5.75;;;2.40;99.90;;;;;;5067224;28;20083;-61
2023/01/17 11:00:21;;;;;;;11.80;6.20;;;2.40;99.90;;;;;;5073303;28;20102;-61
2023/01/17 11:02:49;;;;;;;11.20;5.53;;;2.40;99.90;;;;;;5071114;28;20049;-61
2023/01/17 11:05:27;;;;;;;9.02;4.63;;;2.40;99.90;;;;;;5066488;28;20050;-61
2023/01/17 11:07:58;;;;;;;6.78;4.35;;;2.50;99.90;;;;;;5069936;28;20044;-61
2023/01/17 11:11:00;;;;;;;8.73;4.45;;;2.50;99.90;;;;;;5072745;28;20147;-61
2023/01/17 11:13:37;;;;;;;12.68;5.82;;;2.50;99.90;;;;;;5062172;28;20102;-61
2023/01/17 11:16:15;;;;;;;9.88;5.32;;;2.50;99.90;;;;;;5072134;28;20033;-61
2023/01/17 11:18:41;;;;;;;7.72;4.95;;;2.60;99.90;;;;;;5060922;28;20413;-61
2023/01/17 11:21:23;;;;;;;10.25;5.22;;;2.50;99.90;;;;;;5052595;28;20517;-61
2023/01/17 11:23:53;;;;;;;12.00;5.38;;;2.70;99.90;;;;;;5051670;28;20053;-61
2023/01/17 11:26:26;;;;;;;7.50;4.30;;;2.60;99.90;;;;;;5072697;28;20059;-61
2023/01/17 11:29:12;;;;;;;11.68;4.90;;;2.60;99.90;;;;;;5072166;28;20052;-61
2023/01/17 11:31:39;;;;;;;10.05;5.47;;;2.70;99.90;;;;;;5067048;28;20047;-61
2023/01/17 11:34:17;;;;;;;12.68;4.32;;;2.80;99.90;;;;;;5072285;28;20489;-61
2023/01/17 11:36:44;;;;;;;16.85;7.63;;;2.80;99.90;;;;;;5072241;28;20086;-61
2023/01/17 11:39:16;;;;;;;22.73;9.52;;;2.80;99.90;;;;;;5072494;28;20470;-61
2023/01/17 11:41:46;;;;;;;18.05;7.93;;;2.80;99.90;;;;;;5055487;28;20049;-60
2023/01/17 11:44:31;;;;;;;12.88;6.75;;;2.90;99.90;;;;;;5072151;28;20713;-60
2023/01/17 11:47:11;;;;;;;18.85;6.65;;;2.90;99.90;;;;;;5071867;28;20493;-61
2023/01/17 11:49:40;;;;;;;15.00;7.53;;;2.90;99.90;;;;;;5055544;28;20467;-61
2023/01/17 11:52:16;;;;;;;15.63;8.02;;;3.00;99.90;;;;;;5043949;28;20049;-61
2023/01/17 11:54:46;;;;;;;7.57;3.85;;;3.10;99.90;;;;;;5059026;28;20093;-61
2023/01/17 11:57:19;;;;;;;15.75;8.75;;;3.10;99.90;;;;;;5071713;28;20045;-61
2023/01/17 11:59:46;;;;;;;21.33;10.15;;;3.10;99.90;;;;;;5071280;28;20040;-60
2023/01/17 12:02:33;;;;;;;;;;;3.10;99.90;;;;;;5055726;28;20053;-60
2023/01/17 12:05:19;;;;;;;13.52;6.25;;;3.10;99.90;;;;;;5051687;28;19920;-61
2023/01/17 12:08:16;;;;;;;10.52;5.85;;;3.20;99.90;;;;;;5050920;28;20079;-61
2023/01/17 12:11:15;;;;;;;34.13;14.60;;;3.20;99.90;;;;;;5051424;28;20080;-61
2023/01/17 12:14:08;;;;;;;25.77;10.07;;;3.20;99.90;;;;;;5051224;28;20080;-61
2023/01/17 12:16:53;;;;;;;22.25;6.97;;;3.30;99.90;;;;;;5032362;28;20099;-61
2023/01/17 12:19:53;;;;;;;12.57;5.32;;;3.20;99.90;;;;;;5048291;28;20068;-61
2023/01/17 12:22:45;;;;;;;13.07;5.43;;;3.20;99.90;;;;;;5071360;28;20094;-60
2023/01/17 12:25:29;;;;;;;13.57;4.15;;;3.20;99.90;;;;;;5070962;28;20138;-60
2023/01/17 12:28:44;;;;;;;8.45;4.57;;;3.20;99.90;;;;;;5063388;28;20699;-61
2023/01/17 12:31:17;;;;;;;11.73;4.47;;;3.20;99.90;;;;;;5070983;28;20055;-61
2023/01/17 12:34:17;;;;;;;12.18;5.30;;;3.10;99.90;;;;;;5068336;28;20040;-60
2023/01/17 12:36:55;;;;;;;;;;;3.10;99.90;;;;;;5071041;28;20061;-60
2023/01/17 12:39:29;;;;;;;12.07;5.15;;;3.00;99.90;;;;;;5071573;28;20284;-60
2023/01/17 12:41:56;;;;;;;14.02;5.32;;;2.80;99.90;;;;;;5040319;28;20095;-60
2023/01/17 12:44:40;;;;;;;12.93;5.65;;;2.70;99.90;;;;;;5051273;28;20110;-60
2023/01/17 12:47:07;;;;;;;13.02;5.45;;;2.70;99.90;;;;;;5055248;28;20068;-61
2023/01/17 12:50:15;;;;;;;14.25;5.25;;;2.60;99.90;;;;;;5071166;28;20044;-60
2023/01/17 12:52:59;;;;;;;8.40;4.57;;;2.60;99.90;;;;;;5059295;28;20548;-60
2023/01/17 12:55:40;;;;;;;8.05;4.88;;;2.60;99.90;;;;;;5063222;28;20044;-60
2023/01/17 12:58:21;;;;;;;16.90;5.75;;;2.60;99.90;;;;;;5069330;22;20050;-64
2023/01/17 13:04:59;;;;;;;15.95;6.80;;;2.70;99.90;;;;;;4977101;28;20410;-64
2023/01/17 13:08:01;;;;;;;24.98;9.27;;;2.70;99.90;;;;;;5011033;28;20120;-64
2023/01/17 13:10:43;;;;;;;31.80;11.70;;;2.80;99.90;;;;;;5009927;28;20125;-64
2023/01/17 13:13:25;;;;;;;36.80;10.48;;;2.80;99.90;;;;;;5029953;28;20050;-64
2023/01/17 13:16:03;;;;;;;23.38;7.95;;;2.80;99.90;;;;;;5029796;28;20498;-64
2023/01/17 13:18:32;;;;;;;22.65;7.75;;;2.90;99.90;;;;;;5031243;28;20410;-64
2023/01/17 13:21:29;;;;;;;25.48;9.02;;;2.90;99.90;;;;;;5027718;28;20054;-64
2023/01/17 13:23:59;;;;;;;28.52;8.35;;;2.80;99.90;;;;;;5004124;28;20561;-64
2023/01/17 13:26:52;;;;;;;15.40;6.22;;;2.80;99.90;;;;;;5012110;28;20096;-64
2023/01/17 13:29:52;;;;;;;17.30;6.45;;;2.80;99.90;;;;;;4997094;28;20050;-64
2023/01/17 13:32:28;;;;;;;12.23;6.15;;;2.80;99.90;;;;;;5030223;28;20120;-64
2023/01/17 13:35:22;;;;;;;15.50;6.28;;;2.70;99.90;;;;;;5026610;28;20466;-64
2023/01/17 13:38:14;;;;;;;11.60;5.97;;;2.70;99.90;;;;;;5034786;28;20046;-64
2023/01/17 13:40:57;;;;;;;14.13;5.32;;;2.70;99.90;;;;;;5015500;28;20590;-64
2023/01/17 13:43:27;;;;;;;12.73;5.13;;;2.70;99.90;;;;;;5014485;28;20466;-64
2023/01/17 13:46:00;;;;;;;15.95;4.93;;;2.60;99.90;;;;;;5014529;28;20045;-64
2023/01/17 13:48:39;;;;;;;12.57;4.97;;;2.60;99.90;;;;;;5028851;28;20037;-64
2023/01/17 13:51:08;;;;;;;13.82;4.63;;;2.60;99.90;;;;;;5034416;28;20132;-64
2023/01/17 13:53:38;;;;;;;13.48;5.05;;;2.60;99.90;;;;;;5031954;28;20120;-64
2023/01/17 13:56:26;;;;;;;10.75;4.82;;;2.50;99.90;;;;;;5017870;28;20037;-64
2023/01/17 13:58:53;;;;;;;16.87;5.67;;;2.50;99.90;;;;;;5034123;28;20073;-64
2023/01/17 14:01:23;;;;;;;11.20;5.60;;;2.50;99.90;;;;;;5033385;28;20116;-64
2023/01/17 14:03:53;;;;;;;12.13;5.10;;;2.60;99.90;;;;;;5023233;28;20061;-64
2023/01/17 14:06:37;;;;;;;15.05;5.75;;;2.60;99.90;;;;;;5028139;28;20041;-64
2023/01/17 14:09:15;;;;;;;19.02;5.90;;;2.60;99.90;;;;;;5034214;28;20057;-64
2023/01/17 14:12:05;;;;;;;15.30;6.15;;;2.60;99.90;;;;;;5015424;28;20045;-64
2023/01/17 14:14:40;;;;;;;11.63;5.43;;;2.70;99.90;;;;;;5014101;28;20384;-64
2023/01/17 14:17:21;;;;;;;10.85;5.57;;;2.90;99.90;;;;;;5024050;28;20045;-64
2023/01/17 14:19:52;;;;;;;11.57;4.85;;;3.10;99.90;;;;;;5023052;28;20045;-64
2023/01/17 14:22:19;;;;;;;11.90;4.90;;;3.40;99.90;;;;;;5030558;28;20038;-64
2023/01/17 14:25:18;;;;;;;18.13;5.20;;;3.60;99.90;;;;;;5033438;28;20562;-64
2023/01/17 14:27:58;;;;;;;10.38;5.15;;;3.60;99.90;;;;;;5029566;28;20099;-64
2023/01/17 14:30:36;;;;;;;10.57;4.70;;;3.50;99.90;;;;;;5031715;28;20049;-64
2023/01/17 14:33:16;;;;;;;17.20;5.15;;;3.30;99.90;;;;;;5024435;28;20046;-64
2023/01/17 14:35:55;;;;;;;11.75;4.68;;;3.10;99.90;;;;;;5012956;28;20049;-64
2023/01/17 14:38:25;;;;;;;7.55;4.45;;;2.90;99.90;;;;;;5011603;28;20076;-64
2023/01/17 14:40:58;;;;;;;24.83;10.25;;;2.70;99.90;;;;;;5018608;28;20045;-64
2023/01/17 14:43:27;;;;;;;25.17;10.98;;;2.60;99.90;;;;;;5018766;28;20400;-64
2023/01/17 14:46:00;;;;;;;22.65;10.50;;;2.60;99.90;;;;;;5012730;28;20560;-64